Time;durP1;ratioP1;P1;durP2;ratioP2;P2;SDS_P1;SDS_P2;PMS_P1;PMS_P2;Temp;Humidity;BMP_temperature;BMP_pressure;BME280_temperature;BME280_humidity;BME280_pressure;Samples;Min_cycle;Max_cycle;Signal;HPM_P1;HPM_P2
2022/03/09 00:01:48;;;;;;;18.58;11.65;;;;;;;5.08;43.06;101474.91;5028534;28;20057;-77
2022/03/09 00:04:33;;;;;;;21.67;12.50;;;;;;;4.25;45.10;101474.53;5032604;28;20048;-77
2022/03/09 00:07:18;;;;;;;39.75;23.80;;;;;;;4.48;45.83;101467.19;5038563;28;20056;-76
2022/03/09 00:10:04;;;;;;;26.90;13.27;;;;;;;3.94;46.79;101461.03;5032312;28;20124;-76
2022/03/09 00:12:49;;;;;;;35.03;18.25;;;;;;;3.92;46.01;101461.25;5032702;28;20068;-77
2022/03/09 00:15:34;;;;;;;37.42;15.05;;;;;;;3.72;47.09;101453.78;5032716;28;20104;-78
2022/03/09 00:18:19;;;;;;;20.37;11.77;;;;;;;3.55;49.19;101458.44;5032527;28;20128;-77
2022/03/09 00:21:04;;;;;;;;;;;;;;;3.44;48.11;101465.56;5034136;28;20644;-76
2022/03/09 00:23:48;;;;;;;35.03;16.25;;;;;;;3.61;47.75;101468.16;5032313;28;19925;-77
2022/03/09 00:26:33;;;;;;;28.95;12.30;;;;;;;4.39;46.62;101463.34;5031766;28;20060;-77
2022/03/09 00:29:18;;;;;;;24.17;11.55;;;;;;;4.56;45.98;101458.66;5022509;28;20054;-77
2022/03/09 00:32:04;;;;;;;25.17;12.02;;;;;;;4.52;46.42;101465.63;5021271;28;20130;-77
2022/03/09 00:34:49;;;;;;;27.00;13.35;;;;;;;4.43;46.23;101464.44;5032923;28;20073;-77
2022/03/09 00:37:33;;;;;;;18.87;11.10;;;;;;;4.53;46.24;101459.97;5032537;28;20104;-77
2022/03/09 00:40:18;;;;;;;21.52;10.50;;;;;;;4.47;46.71;101462.91;5032403;28;20048;-77
2022/03/09 00:43:03;;;;;;;76.13;19.67;;;;;;;4.47;48.10;101465.59;5024586;28;20052;-77
2022/03/09 00:45:48;;;;;;;21.95;10.73;;;;;;;4.55;47.69;101468.63;5031464;28;20048;-77
2022/03/09 00:48:33;;;;;;;17.48;9.90;;;;;;;4.58;47.49;101472.66;5032020;28;20099;-77
2022/03/09 00:51:18;;;;;;;21.05;12.15;;;;;;;4.59;47.77;101468.91;5032032;28;20053;-77
2022/03/09 00:54:03;;;;;;;19.80;11.07;;;;;;;4.73;46.13;101475.47;5017182;28;20433;-77
2022/03/09 00:56:48;;;;;;;21.15;10.05;;;;;;;4.54;46.55;101475.06;5031968;28;20048;-77
2022/03/09 00:59:34;;;;;;;30.13;13.75;;;;;;;4.55;46.12;101468.63;5033138;28;20052;-77
2022/03/09 01:02:19;;;;;;;21.53;9.07;;;;;;;4.68;45.86;101472.75;5026849;28;20052;-77
2022/03/09 01:05:03;;;;;;;17.92;9.15;;;;;;;4.66;46.16;101472.22;5024840;28;20049;-78
2022/03/09 01:07:48;;;;;;;24.65;10.82;;;;;;;4.71;46.24;101466.88;5019374;28;20525;-77
2022/03/09 01:10:34;;;;;;;18.90;11.75;;;;;;;4.55;46.93;101468.63;5031185;28;20052;-76
2022/03/09 01:13:19;;;;;;;24.35;13.90;;;;;;;4.25;47.37;101463.78;5035463;28;20057;-77
2022/03/09 01:16:04;;;;;;;19.65;11.02;;;;;;;4.48;46.94;101461.81;5033565;28;20555;-76
2022/03/09 01:18:49;;;;;;;25.83;13.43;;;;;;;4.53;47.08;101456.47;5031563;28;20052;-76
2022/03/09 01:21:34;;;;;;;19.30;10.57;;;;;;;4.60;46.85;101454.38;5031305;28;20057;-76
2022/03/09 01:24:18;;;;;;;18.83;11.18;;;;;;;4.73;47.01;101459.31;5031425;28;20052;-77
2022/03/09 01:27:03;;;;;;;17.80;10.50;;;;;;;4.68;46.39;101461.97;5031767;28;20040;-77
2022/03/09 01:29:48;;;;;;;20.73;11.05;;;;;;;4.83;46.54;101459.41;5031309;28;20621;-77
2022/03/09 01:32:33;;;;;;;18.95;11.55;;;;;;;4.85;46.41;101457.25;5019902;28;20048;-78
2022/03/09 01:35:18;;;;;;;;;;;;;;;4.77;46.59;101457.75;5031772;28;20053;-77
2022/03/09 01:38:03;;;;;;;30.65;13.15;;;;;;;4.79;46.83;101447.50;5031532;28;19913;-77
2022/03/09 01:40:48;;;;;;;23.50;11.57;;;;;;;4.80;47.27;101438.38;5032087;28;20117;-77
2022/03/09 01:43:32;;;;;;;20.27;11.25;;;;;;;4.82;47.12;101440.81;5036160;28;20521;-77
2022/03/09 01:46:16;;;;;;;21.67;11.40;;;;;;;4.83;46.94;101437.03;5035126;28;20402;-77
2022/03/09 01:49:03;;;;;;;28.10;13.32;;;;;;;4.89;47.06;101436.81;5039471;28;20048;-77
2022/03/09 01:51:52;;;;;;;21.92;13.82;;;;;;;4.79;46.58;101435.94;5034963;28;20048;-77
2022/03/09 01:54:39;;;;;;;23.20;14.40;;;;;;;4.79;47.15;101438.63;5034856;28;20513;-77
2022/03/09 01:57:24;;;;;;;26.83;14.43;;;;;;;4.61;47.79;101443.34;5039449;28;20517;-77
2022/03/09 02:00:10;;;;;;;18.88;10.88;;;;;;;4.37;48.16;101447.44;5039101;28;20048;-77
2022/03/09 02:02:55;;;;;;;24.88;14.30;;;;;;;4.36;47.93;101445.03;5021155;28;20048;-78
2022/03/09 02:05:40;;;;;;;19.13;11.27;;;;;;;4.30;48.64;101438.78;5034671;28;20053;-77
2022/03/09 02:11:32;;;;;;;24.23;13.68;;;;;;;4.42;49.05;101447.47;5020445;28;20537;-77
2022/03/09 02:14:26;;;;;;;22.92;13.13;;;;;;;4.36;50.08;101447.72;5018484;28;20120;-77
2022/03/09 02:17:16;;;;;;;27.27;14.05;;;;;;;4.51;49.79;101447.84;5032045;28;20052;-77
2022/03/09 02:20:03;;;;;;;20.75;12.48;;;;;;;4.52;49.31;101450.25;5012174;28;20053;-78
2022/03/09 02:22:47;;;;;;;;;;;;;;;4.49;49.77;101449.97;5035005;28;20061;-77
2022/03/09 02:25:31;;;;;;;24.00;12.80;;;;;;;4.11;50.60;101449.09;5034591;28;19913;-77
2022/03/09 02:28:16;;;;;;;19.23;10.23;;;;;;;4.27;50.63;101434.69;5034404;28;20053;-77
2022/03/09 02:31:01;;;;;;;20.23;10.88;;;;;;;4.14;49.77;101432.44;5023003;28;20072;-78
2022/03/09 02:33:46;;;;;;;16.88;10.88;;;;;;;4.41;49.60;101434.31;5023989;28;20513;-78
2022/03/09 02:36:31;;;;;;;19.13;10.07;;;;;;;4.43;48.67;101432.97;5023173;28;20076;-78
2022/03/09 02:39:16;;;;;;;20.92;12.02;;;;;;;4.44;48.81;101433.78;5038692;28;20046;-78
2022/03/09 02:42:01;;;;;;;19.90;11.07;;;;;;;4.66;48.52;101435.31;5019033;28;20048;-77
2022/03/09 02:44:45;;;;;;;23.35;10.45;;;;;;;4.47;49.96;101433.28;5034261;28;20044;-76
2022/03/09 02:47:30;;;;;;;22.63;10.95;;;;;;;4.40;49.63;101438.88;5034171;28;20052;-77
2022/03/09 02:50:16;;;;;;;21.65;12.40;;;;;;;4.67;48.99;101444.22;5037256;28;20052;-77
2022/03/09 02:53:00;;;;;;;18.45;10.82;;;;;;;4.59;49.51;101444.66;5033742;28;20052;-77
2022/03/09 02:55:44;;;;;;;25.98;11.50;;;;;;;4.71;49.08;101450.69;5026566;28;20048;-76
2022/03/09 02:58:29;;;;;;;20.80;11.45;;;;;;;4.63;49.19;101451.16;5022401;28;20053;-76
2022/03/09 03:01:14;;;;;;;20.33;11.97;;;;;;;4.34;50.07;101453.34;5032270;28;20040;-76
2022/03/09 03:03:59;;;;;;;19.25;10.60;;;;;;;4.40;50.02;101462.28;5031630;28;20287;-77
2022/03/09 03:06:44;;;;;;;20.05;11.82;;;;;;;4.42;51.81;101462.84;5032063;28;20427;-78
2022/03/09 03:09:28;;;;;;;18.08;10.48;;;;;;;4.43;51.68;101459.88;5019261;28;20049;-76
2022/03/09 03:12:13;;;;;;;20.17;10.37;;;;;;;4.35;51.90;101460.38;5028252;28;20422;-77
2022/03/09 03:14:57;;;;;;;20.35;11.65;;;;;;;4.22;51.90;101458.88;5025895;28;20048;-76
2022/03/09 03:17:42;;;;;;;22.27;11.17;;;;;;;4.20;51.72;101455.66;5033805;28;20053;-76
2022/03/09 03:20:27;;;;;;;19.23;11.73;;;;;;;4.14;52.13;101451.28;5029393;28;20291;-78
2022/03/09 03:23:12;;;;;;;26.83;13.68;;;;;;;3.92;52.40;101453.19;5022966;28;20422;-77
2022/03/09 03:25:58;;;;;;;17.90;10.80;;;;;;;3.95;52.39;101455.41;5020152;28;20037;-77
2022/03/09 03:28:42;;;;;;;27.20;15.82;;;;;;;3.99;52.73;101459.19;5031253;28;20048;-76
2022/03/09 03:31:30;;;;;;;24.30;10.65;;;;;;;4.04;50.40;101453.88;5032298;28;20417;-76
2022/03/09 03:34:15;;;;;;;22.23;13.40;;;;;;;3.90;51.28;101449.97;5026939;28;20049;-76
2022/03/09 03:36:59;;;;;;;18.23;10.65;;;;;;;3.87;51.04;101455.81;5018318;28;20049;-76
2022/03/09 03:39:44;;;;;;;17.40;10.05;;;;;;;3.99;52.40;101453.00;5035558;28;20501;-77
2022/03/09 03:42:29;;;;;;;20.90;10.50;;;;;;;3.70;51.42;101449.72;5029807;28;20053;-77
2022/03/09 03:45:14;;;;;;;22.40;11.85;;;;;;;4.01;50.27;101446.31;5032704;28;20045;-77
2022/03/09 03:47:58;;;;;;;19.53;10.87;;;;;;;3.95;51.70;101457.28;5013480;28;20433;-77
2022/03/09 03:50:43;;;;;;;18.58;10.30;;;;;;;4.11;51.50;101449.09;5018915;28;20279;-76
2022/03/09 03:53:28;;;;;;;22.23;10.85;;;;;;;4.04;51.10;101448.50;5032832;28;20517;-77
2022/03/09 03:56:13;;;;;;;16.40;9.98;;;;;;;3.93;51.54;101449.44;5027040;28;20049;-77
2022/03/09 03:58:58;;;;;;;24.67;12.95;;;;;;;3.95;49.39;101441.13;5020893;28;20425;-77
2022/03/09 04:01:43;;;;;;;23.10;13.65;;;;;;;3.86;51.23;101448.81;5032013;28;20072;-77
2022/03/09 04:04:27;;;;;;;20.10;11.17;;;;;;;3.53;49.85;101447.09;5039489;28;20056;-77
2022/03/09 04:07:12;;;;;;;;;;;;;;;3.77;50.97;101448.47;5021108;28;20048;-78
2022/03/09 04:09:57;;;;;;;22.80;13.43;;;;;;;3.75;49.91;101444.41;5019189;28;19913;-77
2022/03/09 04:12:42;;;;;;;16.40;10.63;;;;;;;3.37;51.06;101445.28;5016927;28;20052;-77
2022/03/09 04:15:27;;;;;;;17.42;9.60;;;;;;;3.48;51.08;101443.53;5016541;28;20048;-77
2022/03/09 04:18:11;;;;;;;20.77;11.00;;;;;;;3.67;48.64;101447.53;5036904;28;20045;-78
2022/03/09 04:20:56;;;;;;;22.27;10.80;;;;;;;3.18;49.42;101446.66;5029825;28;20048;-77
2022/03/09 04:23:41;;;;;;;19.45;10.68;;;;;;;3.07;50.51;101456.44;5032343;28;20060;-77
2022/03/09 04:26:25;;;;;;;15.25;9.05;;;;;;;3.23;49.76;101450.22;5032976;28;20045;-77
2022/03/09 04:29:10;;;;;;;25.25;10.27;;;;;;;3.32;49.76;101450.59;5026060;28;20056;-78
2022/03/09 04:31:55;;;;;;;19.90;10.93;;;;;;;3.42;50.31;101445.34;5009180;28;20425;-77
2022/03/09 04:34:40;;;;;;;18.52;11.00;;;;;;;3.41;50.41;101449.09;5033524;28;20401;-77
2022/03/09 04:37:25;;;;;;;17.40;10.37;;;;;;;3.53;51.02;101449.78;5031266;28;20052;-77
2022/03/09 04:40:10;;;;;;;19.48;9.35;;;;;;;3.60;48.49;101445.06;5025963;28;20355;-77
2022/03/09 04:42:55;;;;;;;25.25;12.98;;;;;;;3.49;50.58;101454.03;5027425;28;20041;-77
2022/03/09 04:45:39;;;;;;;20.98;11.05;;;;;;;3.33;50.62;101450.34;5031248;28;20049;-77
2022/03/09 04:48:24;;;;;;;17.35;10.25;;;;;;;3.40;50.20;101456.34;5032022;28;20425;-77
2022/03/09 04:51:09;;;;;;;17.85;9.48;;;;;;;3.39;51.01;101459.28;5019223;28;20044;-77
2022/03/09 04:53:54;;;;;;;16.00;9.35;;;;;;;3.48;50.56;101456.97;5017840;28;20067;-78
2022/03/09 04:56:39;;;;;;;17.60;10.00;;;;;;;3.34;50.74;101453.84;5035685;28;20069;-77
2022/03/09 04:59:23;;;;;;;15.37;9.20;;;;;;;3.50;49.94;101458.38;5031541;28;20536;-77
2022/03/09 05:02:08;;;;;;;17.83;9.57;;;;;;;3.56;49.85;101453.84;5032164;28;20052;-78
2022/03/09 05:04:52;;;;;;;28.83;11.98;;;;;;;3.60;49.44;101450.44;5031502;28;20048;-77
2022/03/09 05:07:39;;;;;;;13.47;9.17;;;;;;;3.37;49.16;101458.72;5018041;28;20555;-77
2022/03/09 05:10:24;;;;;;;25.70;12.43;;;;;;;3.32;48.92;101453.28;5019266;28;20287;-78
2022/03/09 05:13:09;;;;;;;17.95;9.77;;;;;;;3.35;48.60;101442.03;5027175;28;20056;-78
2022/03/09 05:15:54;;;;;;;24.67;16.92;;;;;;;3.41;48.92;101444.53;5023548;28;20056;-77
2022/03/09 05:18:40;;;;;;;16.40;8.60;;;;;;;3.56;48.14;101443.91;5033154;28;20049;-77
2022/03/09 05:21:26;;;;;;;22.38;11.30;;;;;;;3.56;48.23;101460.03;5032475;28;20762;-77
2022/03/09 05:24:10;;;;;;;17.67;9.65;;;;;;;3.45;48.30;101463.69;5031482;28;20044;-77
2022/03/09 05:26:55;;;;;;;18.27;9.75;;;;;;;2.92;48.26;101481.19;5031825;28;20048;-78
2022/03/09 05:29:42;;;;;;;20.02;11.40;;;;;;;3.31;47.24;101468.59;5016766;28;20056;-77
2022/03/09 05:32:26;;;;;;;;;;;;;;;2.77;49.33;101475.59;5020531;28;20044;-77
2022/03/09 05:35:11;;;;;;;22.35;11.60;;;;;;;3.08;49.97;101463.44;5033195;28;19913;-78
2022/03/09 05:37:56;;;;;;;21.55;9.18;;;;;;;3.34;47.62;101462.72;5030979;28;20410;-77
2022/03/09 05:40:41;;;;;;;18.40;9.95;;;;;;;3.24;47.75;101473.34;5019782;28;20040;-77
2022/03/09 05:43:26;;;;;;;22.45;10.88;;;;;;;3.29;48.92;101470.72;5011635;28;20048;-77
2022/03/09 05:46:11;;;;;;;31.25;10.18;;;;;;;3.33;49.61;101482.59;5011476;28;20058;-78
2022/03/09 05:48:56;;;;;;;19.73;10.45;;;;;;;3.12;48.35;101487.94;5011781;28;20056;-78
2022/03/09 05:51:41;;;;;;;18.17;10.20;;;;;;;2.91;49.55;101492.19;5024826;28;20058;-77
2022/03/09 05:54:25;;;;;;;37.03;12.70;;;;;;;2.92;48.10;101501.88;5017136;28;20068;-77
2022/03/09 05:57:09;;;;;;;20.45;9.85;;;;;;;2.47;49.26;101505.44;5034121;28;20577;-77
2022/03/09 05:59:54;;;;;;;24.83;12.43;;;;;;;2.51;49.21;101511.94;5032958;28;20048;-77
2022/03/09 06:02:39;;;;;;;17.80;10.32;;;;;;;2.89;48.77;101513.13;5028672;28;20413;-77
2022/03/09 06:05:24;;;;;;;20.77;10.15;;;;;;;2.94;50.19;101511.34;5028271;28;20049;-77
2022/03/09 06:08:08;;;;;;;22.27;10.33;;;;;;;3.09;49.72;101518.00;5018182;28;20041;-77
2022/03/09 06:10:54;;;;;;;18.90;10.48;;;;;;;3.36;46.89;101522.41;5033422;28;20795;-77
2022/03/09 06:13:38;;;;;;;21.48;10.38;;;;;;;5.98;41.71;101525.88;5032712;28;20056;-78
2022/03/09 06:16:23;;;;;;;18.13;10.25;;;;;;;7.61;38.00;101535.66;5018651;28;20049;-80
2022/03/09 06:19:08;;;;;;;27.25;12.32;;;;;;;7.61;37.82;101538.38;5032608;28;20052;-80
2022/03/09 06:21:53;;;;;;;24.35;10.70;;;;;;;9.38;35.11;101542.69;5018419;28;20060;-79
2022/03/09 06:24:37;;;;;;;27.60;13.67;;;;;;;9.98;32.57;101536.84;5017399;28;20048;-80
2022/03/09 06:27:22;;;;;;;22.13;11.85;;;;;;;10.91;32.05;101544.25;5043731;28;20054;-80
2022/03/09 06:30:08;;;;;;;22.67;13.07;;;;;;;12.88;28.35;101548.44;5022776;28;20045;-80
2022/03/09 06:32:52;;;;;;;24.55;13.40;;;;;;;14.25;26.26;101555.72;5026872;28;20041;-80
2022/03/09 06:35:38;;;;;;;25.73;13.38;;;;;;;15.13;25.02;101565.25;5037764;28;20049;-78
2022/03/09 06:38:22;;;;;;;27.80;14.45;;;;;;;15.12;24.76;101552.69;5044369;28;20041;-79
2022/03/09 06:41:07;;;;;;;31.47;14.27;;;;;;;15.89;23.88;101559.06;5035685;28;20041;-79
2022/03/09 06:43:52;;;;;;;23.63;11.65;;;;;;;16.97;22.26;101558.97;5036392;28;20045;-79
2022/03/09 06:46:36;;;;;;;35.97;14.20;;;;;;;16.60;21.97;101570.94;5037024;28;20490;-79
2022/03/09 06:49:21;;;;;;;22.13;10.90;;;;;;;16.95;22.13;101563.19;5037164;28;20049;-79
2022/03/09 06:52:06;;;;;;;32.65;13.88;;;;;;;14.69;25.22;101568.31;5036663;28;20041;-78
2022/03/09 06:54:51;;;;;;;26.45;14.45;;;;;;;10.05;32.26;101557.16;5021777;28;20497;-78
2022/03/09 06:57:36;;;;;;;24.70;12.43;;;;;;;7.69;37.88;101569.47;5025903;28;20045;-78
2022/03/09 07:00:21;;;;;;;36.60;16.08;;;;;;;5.97;42.38;101567.44;5037222;28;20048;-79
2022/03/09 07:03:05;;;;;;;31.90;12.52;;;;;;;6.27;42.17;101576.72;5022123;28;20056;-78
2022/03/09 07:05:50;;;;;;;21.13;13.10;;;;;;;5.69;44.62;101578.59;5034851;28;20045;-78
2022/03/09 07:08:36;;;;;;;27.05;13.90;;;;;;;5.21;46.88;101581.50;5021511;28;20283;-79
2022/03/09 07:11:20;;;;;;;42.17;16.40;;;;;;;4.71;47.27;101571.94;5020195;28;20537;-78
2022/03/09 07:14:05;;;;;;;25.48;12.65;;;;;;;4.49;49.23;101577.34;5035085;28;20060;-78
2022/03/09 07:16:50;;;;;;;21.05;11.77;;;;;;;4.18;49.13;101578.88;5037325;28;20048;-78
2022/03/09 07:19:35;;;;;;;29.25;14.15;;;;;;;4.82;48.28;101581.72;5022077;28;20052;-78
2022/03/09 07:22:20;;;;;;;60.42;17.13;;;;;;;4.70;49.37;101579.19;5035414;28;20117;-78
2022/03/09 07:25:05;;;;;;;49.35;18.45;;;;;;;3.80;51.97;101587.84;5033004;28;20040;-78
2022/03/09 07:27:49;;;;;;;36.42;14.38;;;;;;;4.32;51.03;101585.50;5034175;28;20061;-78
2022/03/09 07:30:35;;;;;;;38.72;14.63;;;;;;;4.46;50.69;101583.25;5033560;28;20076;-78
2022/03/09 07:33:19;;;;;;;;;;;;;;;4.27;51.54;101588.16;5037705;28;20040;-78
2022/03/09 07:36:04;;;;;;;47.40;18.05;;;;;;;4.32;52.07;101588.19;5037792;28;19916;-78
2022/03/09 07:38:49;;;;;;;40.03;15.35;;;;;;;4.45;52.35;101595.09;5038258;28;20422;-78
2022/03/09 07:41:33;;;;;;;34.33;14.10;;;;;;;4.80;50.76;101589.25;5023876;28;20414;-78
2022/03/09 07:44:18;;;;;;;37.60;16.60;;;;;;;4.29;52.54;101596.78;5038203;28;20049;-78
2022/03/09 07:47:04;;;;;;;32.80;16.38;;;;;;;5.11;50.19;101591.16;5039629;28;20092;-78
2022/03/09 07:49:49;;;;;;;44.15;20.80;;;;;;;5.49;48.63;101597.34;5039101;28;20056;-78
2022/03/09 07:52:34;;;;;;;35.40;15.82;;;;;;;5.32;49.32;101596.69;5039727;28;20052;-78
2022/03/09 07:55:19;;;;;;;24.50;15.23;;;;;;;5.60;48.19;101605.25;5024222;28;20048;-78
2022/03/09 07:58:03;;;;;;;26.23;14.82;;;;;;;5.95;47.53;101607.38;5038842;28;20052;-78
2022/03/09 08:00:48;;;;;;;40.22;16.27;;;;;;;5.71;48.50;101610.72;5039699;28;20053;-78
2022/03/09 08:03:33;;;;;;;28.40;15.82;;;;;;;5.60;48.17;101607.13;5037277;28;20049;-78
2022/03/09 08:06:18;;;;;;;24.63;13.40;;;;;;;5.97;46.20;101610.63;5038244;28;20045;-78
2022/03/09 08:09:04;;;;;;;29.85;15.75;;;;;;;6.30;46.29;101608.59;5036891;28;20049;-78
2022/03/09 08:11:50;;;;;;;33.05;16.67;;;;;;;6.50;45.25;101619.50;5023831;28;20116;-78
2022/03/09 08:14:35;;;;;;;27.20;14.68;;;;;;;6.09;46.13;101606.91;5044391;28;20432;-78
2022/03/09 08:17:19;;;;;;;30.73;13.50;;;;;;;6.41;45.94;101602.97;5038894;28;20041;-79
2022/03/09 08:20:05;;;;;;;30.90;14.65;;;;;;;6.64;44.68;101612.50;5035617;28;20041;-79
2022/03/09 08:22:50;;;;;;;36.78;17.27;;;;;;;6.54;44.15;101604.38;5025851;28;20041;-78
2022/03/09 08:25:35;;;;;;;29.70;17.05;;;;;;;5.73;46.22;101598.59;5037926;28;20048;-79
2022/03/09 08:28:20;;;;;;;40.88;18.25;;;;;;;6.36;45.23;101591.34;5030760;28;20040;-79
2022/03/09 08:31:05;;;;;;;30.48;14.60;;;;;;;6.76;44.50;101588.72;5029885;28;20044;-78
2022/03/09 08:33:50;;;;;;;57.22;17.08;;;;;;;7.19;43.22;101583.91;5023792;28;20425;-79
2022/03/09 08:36:35;;;;;;;33.55;14.43;;;;;;;7.21;43.77;101584.44;5036047;28;20044;-79
2022/03/09 08:39:21;;;;;;;31.95;16.75;;;;;;;7.39;43.14;101585.78;5041254;28;20052;-80
2022/03/09 08:42:06;;;;;;;22.88;12.40;;;;;;;7.38;43.17;101593.06;5033339;28;20044;-79
2022/03/09 08:44:51;;;;;;;28.40;13.43;;;;;;;6.99;44.63;101583.88;5038916;28;20060;-79
2022/03/09 08:47:37;;;;;;;37.55;16.13;;;;;;;7.43;43.62;101578.72;5028086;28;20048;-79
2022/03/09 08:50:22;;;;;;;50.25;18.10;;;;;;;7.93;42.90;101583.19;5039909;28;20068;-79
2022/03/09 08:53:07;;;;;;;34.35;14.93;;;;;;;7.53;44.06;101581.41;5035506;28;20049;-79
2022/03/09 08:55:52;;;;;;;29.13;13.35;;;;;;;7.51;43.15;101584.41;5035527;28;20528;-79
2022/03/09 08:58:37;;;;;;;33.75;15.68;;;;;;;7.64;43.41;101581.13;5036295;28;20524;-79
2022/03/09 09:01:22;;;;;;;25.35;14.80;;;;;;;8.07;42.92;101576.13;5035749;28;20068;-79
2022/03/09 09:04:07;;;;;;;34.28;17.55;;;;;;;7.94;43.52;101580.22;5025608;28;20060;-79
2022/03/09 09:06:51;;;;;;;33.30;17.08;;;;;;;8.33;42.36;101579.56;5041165;28;20666;-80
2022/03/09 09:09:36;;;;;;;29.40;16.52;;;;;;;8.18;42.05;101580.38;5024195;28;20646;-80
2022/03/09 09:12:21;;;;;;;24.17;14.60;;;;;;;7.93;42.93;101569.66;5027542;28;20605;-79
2022/03/09 09:15:07;;;;;;;35.38;15.32;;;;;;;8.21;43.07;101563.59;5029165;28;20049;-79
2022/03/09 09:17:58;;;;;;;39.53;17.45;;;;;;;8.51;42.01;101574.31;5035333;28;20064;-78
2022/03/09 09:20:43;;;;;;;33.67;16.77;;;;;;;8.52;41.26;101565.09;5034573;28;20052;-79
2022/03/09 09:23:27;;;;;;;35.33;16.13;;;;;;;9.12;41.88;101567.63;5034009;28;20038;-79
2022/03/09 09:26:18;;;;;;;26.08;12.63;;;;;;;9.28;40.67;101567.22;5023702;28;20044;-80
2022/03/09 09:29:03;;;;;;;27.20;14.98;;;;;;;9.56;38.19;101570.19;5020447;28;20048;-81
2022/03/09 09:31:48;;;;;;;28.25;13.95;;;;;;;10.17;40.66;101564.91;5025626;28;20048;-80
2022/03/09 09:34:33;;;;;;;30.77;14.88;;;;;;;10.39;39.96;101559.72;5027804;28;20046;-80
2022/03/09 09:37:18;;;;;;;51.35;12.10;;;;;;;10.68;40.95;101559.56;5035841;28;20045;-81
2022/03/09 09:40:09;;;;;;;32.30;12.98;;;;;;;10.44;37.88;101542.53;5032001;28;20041;-77
2022/03/09 09:42:54;;;;;;;22.75;13.18;;;;;;;10.33;38.36;101550.00;5038648;28;20521;-77
2022/03/09 09:45:40;;;;;;;19.33;10.02;;;;;;;10.13;37.53;101536.66;5021205;28;20029;-76
2022/03/09 09:48:25;;;;;;;32.55;12.63;;;;;;;9.91;37.39;101529.06;5030711;28;20053;-77
2022/03/09 09:51:12;;;;;;;23.45;13.98;;;;;;;9.97;38.37;101533.31;5032490;28;21207;-76
2022/03/09 09:53:57;;;;;;;33.03;14.23;;;;;;;9.99;37.62;101533.84;5015808;28;20541;-76
2022/03/09 09:56:42;;;;;;;25.20;13.00;;;;;;;10.03;37.63;101540.31;5030783;28;20040;-76
2022/03/09 09:59:27;;;;;;;19.58;11.82;;;;;;;10.15;37.28;101534.47;5031661;28;20045;-76
2022/03/09 10:02:12;;;;;;;21.88;10.88;;;;;;;10.22;37.66;101543.09;5029717;28;20042;-77
2022/03/09 10:04:57;;;;;;;28.90;14.48;;;;;;;10.25;37.51;101547.97;5034986;28;20042;-76
2022/03/09 10:08:05;;;;;;;27.50;10.70;;;;;;;10.17;37.30;101546.69;5023010;28;20034;-77
2022/03/09 10:10:56;;;;;;;26.90;16.15;;;;;;;10.34;37.08;101550.81;5033698;28;20049;-77
2022/03/09 10:13:41;;;;;;;25.42;15.25;;;;;;;10.33;36.64;101551.91;5037804;28;20041;-76
2022/03/09 10:16:30;;;;;;;28.73;14.00;;;;;;;10.53;36.06;101548.91;5036119;28;20045;-76
2022/03/09 10:19:15;;;;;;;28.85;15.25;;;;;;;10.64;35.24;101548.47;5046123;28;20044;-76
2022/03/09 10:22:20;;;;;;;19.75;11.85;;;;;;;10.82;35.10;101551.47;5030868;28;20036;-76
2022/03/09 10:25:11;;;;;;;25.80;14.35;;;;;;;10.95;35.02;101546.09;5028429;28;20033;-77
2022/03/09 10:27:56;;;;;;;24.98;14.05;;;;;;;10.82;35.42;101544.09;5053835;28;20052;-77
2022/03/09 10:30:42;;;;;;;31.75;15.15;;;;;;;10.86;34.82;101539.72;5038856;28;20037;-77
2022/03/09 10:33:27;;;;;;;29.15;15.63;;;;;;;11.01;33.90;101544.91;5020374;28;20037;-76
2022/03/09 10:36:16;;;;;;;23.70;12.95;;;;;;;11.07;34.18;101534.75;5021978;28;20046;-77
2022/03/09 10:39:16;;;;;;;30.83;15.38;;;;;;;11.25;34.16;101535.78;5033925;28;20521;-77
2022/03/09 10:42:03;;;;;;;28.15;15.82;;;;;;;11.12;32.32;101537.38;5034657;28;20045;-77
2022/03/09 10:44:48;;;;;;;;;;;;;;;11.34;32.33;101526.63;5034840;28;20046;-78
2022/03/09 10:47:34;;;;;;;;;;;;;;;11.58;32.98;101531.88;5025688;28;19913;-78
2022/03/09 10:50:24;;;;;;;;;;;;;;;11.57;32.64;101531.09;5039038;28;19913;-78
2022/03/09 10:53:11;;;;;;;;;;;;;;;11.69;30.90;101527.84;5030177;28;19913;-77
2022/03/09 10:55:59;;;;;;;;;;;;;;;11.71;30.99;101522.91;5028476;28;20328;-78
2022/03/09 10:58:43;;;;;;;;;;;;;;;11.74;31.59;101525.06;5046340;28;19920;-78
2022/03/09 11:01:27;;;;;;;;;;;;;;;11.89;31.74;101524.75;5040259;28;20304;-78
2022/03/09 11:04:17;;;;;;;;;;;;;;;11.85;29.63;101536.56;5046507;28;20316;-78
2022/03/09 11:07:02;;;;;;;;;;;;;;;11.91;29.80;101525.25;5033947;28;20381;-78
2022/03/09 11:09:48;;;;;;;;;;;;;;;12.28;30.48;101516.03;5021435;28;19912;-78
2022/03/09 11:12:33;;;;;;;;;;;;;;;12.49;29.94;101513.66;5046762;28;19925;-78
2022/03/09 11:15:20;;;;;;;;;;;;;;;12.66;29.50;101511.03;5040794;28;19913;-79
2022/03/09 11:18:05;;;;;;;;;;;;;;;13.10;29.38;101517.63;5043632;28;19917;-78
2022/03/09 11:20:52;;;;;;;;;;;;;;;13.45;27.69;101513.97;5037370;28;19913;-78
2022/03/09 11:23:40;;;;;;;;;;;;;;;14.01;24.54;101504.19;5027842;28;19917;-78
2022/03/09 11:26:27;;;;;;;;;;;;;;;16.56;21.83;101509.53;5041239;28;19913;-78
2022/03/09 11:29:13;;;;;;;;;;;;;;;22.17;17.33;101510.75;5040116;28;19913;-78
2022/03/09 11:31:57;;;;;;;;;;;;;;;25.37;14.40;101514.03;5039717;28;19913;-79
2022/03/09 11:34:46;;;;;;;;;;;;;;;28.04;11.97;101510.44;5039018;28;19913;-79
2022/03/09 11:37:38;;;;;;;;;;;;;;;29.29;10.46;101520.88;5047659;28;19917;-79
2022/03/09 11:40:23;;;;;;;;;;;;;;;28.58;10.01;101509.88;5042620;28;19920;-79
2022/03/09 11:43:27;;;;;;;;;;;;;;;30.30;9.30;101511.09;5021956;28;20404;-79
2022/03/09 11:46:12;;;;;;;;;;;;;;;29.87;9.16;101507.53;5040231;28;19913;-79
2022/03/09 11:48:57;;;;;;;;;;;;;;;30.95;8.86;101508.53;5039647;28;19913;-79
2022/03/09 11:52:01;;;;;;;;;;;;;;;29.92;9.27;101507.06;5039564;28;19913;-79
2022/03/09 11:54:49;;;;;;;;;;;;;;;29.83;9.73;101499.16;5038928;28;19932;-79
2022/03/09 11:57:46;;;;;;;;;;;;;;;31.38;9.01;101499.91;5045973;28;19916;-79
2022/03/09 12:00:30;;;;;;;;;;;;;;;32.15;8.53;101501.97;5037779;28;19913;-80
2022/03/09 12:03:34;;;;;;;;;;;;;;;32.16;8.38;101495.84;5037394;28;19916;-80
2022/03/09 12:06:38;;;;;;;;;;;;;;;28.90;9.79;101488.63;5043682;28;19913;-80
2022/03/09 12:09:42;;;;;;;;;;;;;;;29.56;9.39;101490.81;5038183;28;19925;-79
2022/03/09 12:12:29;;;;;;;;;;;;;;;29.41;8.74;101478.25;5035320;28;19914;-80
2022/03/09 12:15:14;;;;;;;;;;;;;;;29.38;9.54;101470.72;5018175;28;19921;-80
2022/03/09 12:17:58;;;;;;;;;;;;;;;27.37;10.74;101459.97;5018582;28;19922;-80
2022/03/09 12:20:46;;;;;;;;;;;;;;;27.98;10.14;101459.00;5037954;28;19913;-80
2022/03/09 12:23:30;;;;;;;;;;;;;;;28.37;9.97;101466.16;5037541;28;20493;-80
2022/03/09 12:26:35;;;;;;;;;;;;;;;28.10;10.42;101460.44;5035278;28;19917;-80
2022/03/09 12:29:26;;;;;;;;;;;;;;;27.95;10.67;101454.22;5033059;28;20289;-80
2022/03/09 12:32:12;;;;;;;;;;;;;;;28.57;10.41;101453.09;5037339;28;20389;-79
2022/03/09 12:34:56;;;;;;;;;;;;;;;27.81;10.82;101454.38;5041114;28;19917;-80
2022/03/09 12:37:41;;;;;;;;;;;;;;;27.83;11.14;101443.59;5036018;28;20366;-79
2022/03/09 12:40:35;;;;;;;;;;;;;;;27.36;10.93;101438.81;5036648;28;19917;-79
2022/03/09 12:43:20;;;;;;;;;;;;;;;28.22;10.96;101437.56;5037358;28;20378;-79
2022/03/09 12:46:05;;;;;;;;;;;;;;;27.93;10.74;101431.50;5036957;28;19913;-79
2022/03/09 12:48:58;;;;;;;;;;;;;;;27.06;11.31;101428.31;5044532;28;19917;-80
2022/03/09 12:51:52;;;;;;;;;;;;;;;26.79;11.72;101425.25;5036407;28;19913;-79
2022/03/09 12:54:38;;;;;;;;;;;;;;;25.68;12.69;101428.91;5035714;28;19917;-79
2022/03/09 12:57:24;;;;;;;;;;;;;;;26.48;12.06;101427.03;5034791;28;19929;-80
2022/03/09 13:00:10;;;;;;;;;;;;;;;26.26;12.46;101420.75;5036704;28;19913;-79
2022/03/09 13:02:55;;;;;;;;;;;;;;;25.15;13.37;101418.56;5023962;28;20381;-79